createdAt,value
2018-06-05T00:00:05.140Z,81.00
2018-06-05T00:02:34.236Z,81.10
2018-06-05T00:05:03.125Z,81.10
2018-06-05T00:07:32.095Z,81.60
2018-06-05T00:10:01.202Z,82.10
2018-06-05T00:12:30.410Z,82.20
2018-06-05T00:15:00.123Z,82.40
2018-06-05T00:17:29.110Z,82.50
2018-06-05T00:19:58.090Z,82.70
2018-06-05T00:22:27.094Z,82.70
2018-06-05T00:24:56.005Z,82.50
2018-06-05T00:27:28.099Z,82.50
2018-06-05T00:29:57.072Z,82.50
2018-06-05T00:32:26.208Z,82.70
2018-06-05T00:34:55.070Z,82.60
2018-06-05T00:37:24.062Z,82.70
2018-06-05T00:39:53.220Z,82.60
2018-06-05T00:42:22.292Z,82.70
2018-06-05T00:47:19.935Z,83.00
2018-06-05T00:49:49.529Z,83.10
2018-06-05T00:52:18.503Z,83.30
2018-06-05T00:54:47.555Z,83.10
2018-06-05T00:57:16.676Z,83.30
2018-06-05T00:59:45.693Z,83.70
2018-06-05T01:02:14.530Z,83.90
2018-06-05T01:04:44.356Z,84.10
2018-06-05T01:07:13.392Z,84.10
2018-06-05T01:09:42.258Z,84.20
2018-06-05T01:12:11.123Z,84.30
2018-06-05T01:14:39.990Z,84.40
2018-06-05T01:17:08.950Z,84.60
2018-06-05T01:19:37.846Z,84.70
2018-06-05T01:22:06.706Z,84.80
2018-06-05T01:24:35.579Z,84.90
2018-06-05T01:27:04.623Z,85.00
2018-06-05T01:29:33.530Z,85.10
2018-06-05T01:32:02.365Z,85.30
2018-06-05T01:34:31.398Z,85.60
2018-06-05T01:37:00.102Z,85.80
2018-06-05T01:39:29.002Z,86.20
2018-06-05T01:41:57.851Z,86.00
2018-06-05T01:44:26.684Z,86.10
2018-06-05T01:46:55.590Z,86.10
2018-06-05T01:49:24.539Z,86.30
2018-06-05T01:51:54.903Z,86.50
2018-06-05T01:56:52.387Z,86.60
2018-06-05T01:59:21.096Z,86.80
2018-06-05T02:01:49.801Z,87.00
2018-06-05T02:04:18.687Z,87.00
2018-06-05T02:06:47.525Z,87.20
2018-06-05T02:09:16.201Z,87.20
2018-06-05T02:11:45.008Z,87.20
2018-06-05T02:14:13.957Z,87.40
2018-06-05T02:16:42.932Z,87.50
2018-06-05T02:19:11.767Z,88.10
2018-06-05T02:21:40.692Z,88.30
2018-06-05T02:24:09.594Z,88.50
2018-06-05T02:26:38.472Z,88.70
2018-06-05T02:29:07.337Z,88.90
2018-06-05T02:31:36.250Z,88.60
2018-06-05T02:34:05.130Z,88.80
2018-06-05T02:36:33.983Z,89.40
2018-06-05T02:39:02.951Z,89.50
2018-06-05T02:44:00.277Z,89.80
2018-06-05T02:46:29.227Z,89.90
2018-06-05T02:48:58.310Z,90.00
2018-06-05T02:51:27.001Z,90.00
2018-06-05T02:53:55.803Z,90.10
2018-06-05T02:56:24.689Z,90.20
2018-06-05T02:58:54.593Z,90.20
2018-06-05T03:01:23.585Z,90.30
2018-06-05T03:06:21.093Z,90.30
2018-06-05T03:08:50.103Z,90.40
2018-06-05T03:11:19.237Z,90.50
2018-06-05T03:13:48.153Z,90.50
2018-06-05T03:16:17.130Z,90.50
2018-06-05T03:21:14.497Z,90.60
2018-06-05T03:26:11.649Z,90.50
2018-06-05T03:28:40.391Z,90.40
2018-06-05T03:33:37.676Z,90.20
2018-06-05T03:36:06.555Z,90.20
2018-06-05T03:38:35.714Z,90.20
2018-06-05T03:41:05.392Z,90.20
2018-06-05T03:43:34.079Z,90.20
2018-06-05T03:46:02.766Z,90.20
2018-06-05T03:48:31.634Z,90.20
2018-06-05T03:51:00.396Z,90.20
2018-06-05T03:53:29.171Z,90.20
2018-06-05T03:55:57.970Z,90.20
2018-06-05T03:58:26.848Z,90.20
2018-06-05T04:00:56.354Z,90.20
2018-06-05T04:03:26.330Z,90.20
2018-06-05T04:05:55.588Z,90.20
2018-06-05T04:08:26.456Z,90.20
2018-06-05T04:10:55.442Z,90.30
2018-06-05T04:13:24.317Z,90.30
2018-06-05T04:15:53.278Z,90.20
2018-06-05T04:18:22.224Z,90.20
2018-06-05T04:20:51.150Z,90.10
2018-06-05T04:23:19.998Z,90.10
2018-06-05T04:25:48.872Z,90.20
2018-06-05T04:28:17.756Z,90.30
2018-06-05T04:30:46.906Z,90.20
2018-06-05T04:33:15.958Z,90.10
2018-06-05T04:35:44.877Z,90.20
2018-06-05T04:38:13.725Z,89.60
2018-06-05T04:40:53.701Z,89.90
2018-06-05T04:43:22.438Z,90.10
2018-06-05T04:45:51.906Z,90.20
2018-06-05T04:48:20.793Z,90.00
2018-06-05T04:50:50.114Z,89.90
2018-06-05T04:53:20.243Z,89.50
2018-06-05T04:55:49.241Z,89.20
2018-06-05T04:58:18.069Z,90.10
2018-06-05T05:00:49.050Z,89.50
2018-06-05T05:03:17.966Z,90.00
2018-06-05T05:05:48.476Z,89.50
2018-06-05T05:08:17.296Z,89.30
2018-06-05T05:10:46.157Z,89.40
2018-06-05T05:13:15.100Z,88.90
2018-06-05T05:15:44.104Z,88.60
2018-06-05T05:18:13.057Z,88.70
2018-06-05T05:23:10.691Z,88.80
2018-06-05T05:25:39.745Z,88.50
2018-06-05T05:28:08.789Z,87.40
2018-06-05T05:33:06.737Z,87.10
2018-06-05T05:35:36.120Z,87.30
2018-06-05T05:38:05.169Z,87.20
2018-06-05T05:40:34.193Z,87.00
2018-06-05T05:43:03.226Z,87.00
2018-06-05T05:45:32.303Z,86.80
2018-06-05T05:48:01.262Z,86.30
2018-06-05T05:50:31.255Z,86.40
2018-06-05T05:53:01.916Z,85.40
2018-06-05T05:55:30.923Z,85.50
2018-06-05T05:57:59.901Z,85.10
2018-06-05T06:00:29.000Z,84.60
2018-06-05T06:02:58.004Z,84.80
2018-06-05T06:05:28.056Z,84.80
2018-06-05T06:07:57.302Z,84.80
2018-06-05T06:10:29.171Z,84.40
2018-06-05T06:12:58.352Z,84.50
2018-06-05T06:15:27.550Z,84.70
2018-06-05T06:17:58.311Z,84.40
2018-06-05T06:20:27.567Z,83.90
2018-06-05T06:22:56.635Z,84.30
2018-06-05T06:25:25.784Z,83.00
2018-06-05T06:27:55.439Z,82.70
2018-06-05T06:30:24.708Z,82.50
2018-06-05T06:32:54.102Z,82.10
2018-06-05T06:35:23.988Z,82.30
2018-06-05T06:37:53.098Z,82.30
2018-06-05T06:40:22.055Z,82.20
2018-06-05T06:42:55.055Z,81.30
2018-06-05T06:45:34.050Z,81.20
2018-06-05T06:48:03.271Z,81.30
2018-06-05T06:50:32.163Z,81.00
2018-06-05T06:53:01.917Z,80.90
2018-06-05T06:55:30.797Z,81.40
2018-06-05T06:57:59.687Z,81.20
2018-06-05T07:00:28.836Z,80.70
2018-06-05T07:02:57.992Z,80.70
2018-06-05T07:05:27.200Z,81.20
2018-06-05T07:07:56.869Z,81.20
2018-06-05T07:10:26.891Z,81.40
2018-06-05T07:12:56.188Z,81.40
2018-06-05T07:15:25.077Z,81.60
2018-06-05T07:17:54.083Z,81.10
2018-06-05T07:20:23.015Z,80.70
2018-06-05T07:22:51.953Z,80.90
2018-06-05T07:25:21.285Z,80.90
2018-06-05T07:27:51.145Z,79.80
2018-06-05T07:30:21.335Z,79.60
2018-06-05T07:32:50.962Z,79.60
2018-06-05T07:37:56.098Z,79.70
2018-06-05T07:40:25.690Z,78.50
2018-06-05T07:42:56.985Z,77.80
2018-06-05T07:45:26.087Z,76.70
2018-06-05T07:50:28.796Z,75.20
2018-06-05T07:52:58.371Z,75.20
2018-06-05T07:55:27.937Z,74.90
2018-06-05T07:57:57.318Z,74.80
2018-06-05T08:00:27.177Z,74.40
2018-06-05T08:02:58.125Z,73.80
2018-06-05T08:05:29.522Z,73.90
2018-06-05T08:08:02.222Z,74.30
2018-06-05T08:10:32.253Z,73.80
2018-06-05T08:13:02.463Z,73.90
2018-06-05T08:15:32.941Z,73.90
2018-06-05T08:18:04.097Z,72.70
2018-06-05T08:20:33.938Z,73.00
2018-06-05T08:23:04.623Z,72.80
2018-06-05T08:25:35.344Z,73.20
2018-06-05T08:28:06.075Z,72.40
2018-06-05T08:30:35.919Z,72.20
2018-06-05T08:33:06.852Z,71.30
2018-06-05T08:35:36.151Z,71.70
2018-06-05T08:38:05.968Z,71.20
2018-06-05T08:40:37.089Z,70.90
2018-06-05T08:43:06.980Z,70.30
2018-06-05T08:45:37.210Z,70.00
2018-06-05T08:48:07.203Z,70.60
2018-06-05T08:50:37.960Z,69.40
2018-06-05T08:53:07.531Z,68.30
2018-06-05T08:55:41.097Z,68.90
2018-06-05T08:58:11.594Z,68.50
2018-06-05T09:00:42.029Z,67.70
2018-06-05T09:03:13.492Z,67.60
2018-06-05T09:05:45.157Z,67.30
2018-06-05T09:08:18.088Z,66.50
2018-06-05T09:10:48.321Z,66.20
2018-06-05T09:13:18.232Z,66.60
2018-06-05T09:15:49.856Z,64.60
2018-06-05T09:18:19.387Z,63.10
2018-06-05T09:20:49.969Z,62.20
2018-06-05T09:23:19.657Z,62.40
2018-06-05T09:25:49.680Z,62.30
2018-06-05T09:28:19.787Z,62.30
2018-06-05T09:30:51.310Z,63.00
2018-06-05T09:33:21.670Z,63.00
2018-06-05T09:36:00.787Z,64.20
2018-06-05T09:38:33.919Z,63.40
2018-06-05T09:41:09.738Z,63.60
2018-06-05T09:43:42.585Z,64.50
2018-06-05T09:46:15.447Z,64.60
2018-06-05T09:48:52.411Z,64.60
2018-06-05T09:51:30.823Z,64.60
2018-06-05T09:54:00.141Z,63.60
2018-06-05T09:56:30.314Z,63.60
2018-06-05T09:59:05.270Z,63.00
2018-06-05T10:01:40.575Z,64.40
2018-06-05T10:04:12.796Z,60.90
2018-06-05T10:06:44.965Z,60.10
2018-06-05T10:09:19.657Z,59.40
2018-06-05T10:11:53.823Z,58.60
2018-06-05T10:14:26.961Z,58.30
2018-06-05T10:16:58.859Z,59.30
2018-06-05T10:19:30.802Z,59.30
2018-06-05T10:22:06.572Z,58.70
2018-06-05T10:24:48.384Z,57.90
2018-06-05T10:27:17.803Z,57.20
2018-06-05T10:29:47.163Z,56.50
2018-06-05T10:32:16.457Z,55.50
2018-06-05T10:34:48.621Z,55.20
2018-06-05T10:37:27.089Z,55.70
2018-06-05T10:40:02.726Z,55.60
2018-06-05T10:42:37.652Z,55.10
2018-06-05T10:47:40.916Z,54.10
2018-06-05T10:50:16.322Z,54.10
2018-06-05T10:52:48.137Z,54.90
2018-06-05T10:55:18.684Z,53.50
2018-06-05T11:00:25.144Z,53.90
2018-06-05T11:02:56.292Z,52.70
2018-06-05T11:05:28.217Z,53.60
2018-06-05T11:08:02.044Z,52.10
2018-06-05T11:10:34.922Z,49.40
2018-06-05T11:13:07.900Z,50.00
2018-06-05T11:15:43.340Z,49.10
2018-06-05T11:18:15.546Z,48.50
2018-06-05T11:20:48.611Z,47.70
2018-06-05T11:25:57.487Z,47.60
2018-06-05T11:31:05.738Z,47.40
2018-06-05T11:33:37.056Z,47.60
2018-06-05T11:36:07.184Z,47.70
2018-06-05T11:38:37.130Z,48.40
2018-06-05T11:41:10.184Z,48.30
2018-06-05T11:43:41.007Z,48.50
2018-06-05T11:46:10.592Z,48.20
2018-06-05T11:48:41.951Z,47.20
2018-06-05T11:51:14.867Z,43.40
2018-06-05T11:53:46.890Z,43.10
2018-06-05T11:56:20.168Z,42.70
2018-06-05T11:58:53.035Z,42.50
2018-06-05T12:01:25.266Z,43.70
2018-06-05T12:03:59.319Z,44.00
2018-06-05T12:06:33.931Z,44.00
2018-06-05T12:09:08.819Z,45.20
2018-06-05T12:11:43.088Z,44.70
2018-06-05T12:14:14.053Z,43.00
2018-06-05T12:16:43.341Z,43.50
2018-06-05T12:19:20.245Z,41.80
2018-06-05T12:21:52.985Z,41.70
2018-06-05T12:24:25.507Z,40.60
2018-06-05T12:26:57.480Z,40.20
2018-06-05T12:29:29.869Z,39.90
2018-06-05T12:32:05.858Z,40.30
2018-06-05T12:34:35.937Z,40.70
2018-06-05T12:37:07.221Z,40.90
2018-06-05T12:39:37.902Z,41.00
2018-06-05T12:42:09.215Z,41.00
2018-06-05T12:44:39.369Z,40.80
2018-06-05T12:47:09.723Z,39.90
2018-06-05T12:49:41.555Z,40.20
2018-06-05T12:52:11.815Z,41.10
2018-06-05T12:54:44.610Z,41.00
2018-06-05T12:57:15.485Z,41.30
2018-06-05T12:59:49.468Z,40.90
2018-06-05T13:02:21.217Z,41.50
2018-06-05T13:04:50.663Z,41.40
2018-06-05T13:07:20.461Z,41.20
2018-06-05T13:09:52.106Z,41.10
2018-06-05T13:12:21.828Z,43.10
2018-06-05T13:14:56.077Z,42.10
2018-06-05T13:17:27.371Z,41.20
2018-06-05T13:19:56.893Z,40.90
2018-06-05T13:22:28.384Z,40.50
2018-06-05T13:25:00.461Z,40.90
2018-06-05T13:27:29.856Z,40.30
2018-06-05T13:29:59.932Z,40.00
2018-06-05T13:32:29.300Z,38.70
2018-06-05T13:34:58.354Z,38.20
2018-06-05T13:37:27.747Z,38.10
2018-06-05T13:39:57.372Z,38.20
2018-06-05T13:42:30.646Z,38.70
2018-06-05T13:47:28.803Z,38.00
2018-06-05T13:49:58.228Z,38.50
2018-06-05T13:52:27.944Z,39.50
2018-06-05T13:54:57.488Z,39.30
2018-06-05T13:57:26.762Z,39.70
2018-06-05T13:59:56.244Z,39.30
2018-06-05T14:02:25.909Z,39.40
2018-06-05T14:04:55.368Z,38.20
2018-06-05T14:07:24.833Z,38.10
2018-06-05T14:09:53.886Z,38.10
2018-06-05T14:12:23.584Z,38.50
2018-06-05T14:14:52.919Z,37.40
2018-06-05T14:17:22.189Z,38.70
2018-06-05T14:19:55.607Z,38.20
2018-06-05T14:22:28.565Z,38.00
2018-06-05T14:25:00.488Z,38.30
2018-06-05T14:27:29.770Z,39.20
2018-06-05T14:30:01.386Z,39.10
2018-06-05T14:35:02.166Z,38.60
2018-06-05T14:37:32.027Z,39.10
2018-06-05T14:40:03.015Z,39.80
2018-06-05T14:42:33.777Z,40.30
2018-06-05T14:45:06.439Z,40.80
2018-06-05T14:47:38.763Z,41.30
2018-06-05T14:50:08.793Z,41.50
2018-06-05T14:52:39.411Z,42.20
2018-06-05T14:55:12.466Z,42.90
2018-06-05T14:57:44.539Z,42.90
2018-06-05T15:00:15.304Z,42.30
2018-06-05T15:02:44.454Z,42.70
2018-06-05T15:05:13.741Z,41.80
2018-06-05T15:07:43.049Z,41.20
2018-06-05T15:10:12.124Z,41.00
2018-06-05T15:12:41.384Z,41.80
2018-06-05T15:15:10.881Z,41.90
2018-06-05T15:17:41.698Z,41.50
2018-06-05T15:20:10.853Z,42.00
2018-06-05T15:22:49.521Z,40.70
2018-06-05T15:27:54.338Z,40.40
2018-06-05T15:30:28.354Z,40.90
2018-06-05T15:32:59.411Z,41.30
2018-06-05T15:35:32.233Z,41.70
2018-06-05T15:38:05.285Z,41.60
2018-06-05T15:40:39.819Z,41.90
2018-06-05T15:43:13.477Z,41.10
2018-06-05T15:45:42.643Z,39.70
2018-06-05T15:48:14.672Z,39.30
2018-06-05T15:50:52.088Z,39.40
2018-06-05T15:53:27.605Z,39.80
2018-06-05T15:56:01.293Z,40.90
2018-06-05T15:58:30.907Z,42.00
2018-06-05T16:00:59.923Z,41.70
2018-06-05T16:03:31.054Z,42.30
2018-06-05T16:06:00.167Z,41.70
2018-06-05T16:08:29.358Z,42.50
2018-06-05T16:13:27.271Z,39.70
2018-06-05T16:15:56.351Z,39.50
2018-06-05T16:18:25.567Z,40.10
2018-06-05T16:20:59.040Z,40.00
2018-06-05T16:26:01.748Z,41.20
2018-06-05T16:28:32.615Z,42.80
2018-06-05T16:31:01.667Z,42.40
2018-06-05T16:33:30.817Z,43.30
2018-06-05T16:35:59.764Z,44.00
2018-06-05T16:38:29.069Z,46.50
2018-06-05T16:40:59.034Z,49.00
2018-06-05T16:43:28.433Z,50.70
2018-06-05T16:45:57.416Z,52.20
2018-06-05T16:48:26.476Z,53.90
2018-06-05T16:50:55.411Z,54.70
2018-06-05T16:53:24.472Z,56.00
2018-06-05T16:55:53.977Z,56.70
2018-06-05T16:58:23.121Z,56.60
2018-06-05T17:00:52.220Z,57.10
2018-06-05T17:03:21.404Z,57.50
2018-06-05T17:05:55.231Z,57.50
2018-06-05T17:10:57.249Z,58.30
2018-06-05T17:13:26.265Z,57.50
2018-06-05T17:15:57.846Z,57.60
2018-06-05T17:18:28.748Z,57.50
2018-06-05T17:20:57.861Z,57.70
2018-06-05T17:23:26.971Z,58.40
2018-06-05T17:25:56.002Z,58.20
2018-06-05T17:28:25.097Z,58.10
2018-06-05T17:30:54.036Z,58.70
2018-06-05T17:33:22.922Z,58.50
2018-06-05T17:35:53.438Z,58.10
2018-06-05T17:38:24.936Z,58.10
2018-06-05T17:43:22.756Z,58.70
2018-06-05T17:45:52.459Z,58.80
2018-06-05T17:48:21.349Z,59.20
2018-06-05T17:50:50.315Z,60.00
2018-06-05T17:53:19.363Z,60.30
2018-06-05T17:55:48.308Z,60.10
2018-06-05T17:58:17.356Z,59.90
2018-06-05T18:00:46.258Z,59.60
2018-06-05T18:03:15.286Z,60.50
2018-06-05T18:05:44.264Z,60.30
2018-06-05T18:08:13.155Z,61.50
2018-06-05T18:10:42.196Z,60.40
2018-06-05T18:13:11.072Z,61.20
2018-06-05T18:15:40.267Z,61.10
2018-06-05T18:18:09.220Z,61.60
2018-06-05T18:23:07.014Z,62.00
2018-06-05T18:25:36.155Z,62.30
2018-06-05T18:28:05.223Z,62.30
2018-06-05T18:30:34.317Z,63.00
2018-06-05T18:33:03.530Z,63.40
2018-06-05T18:35:35.889Z,63.60
2018-06-05T18:38:06.494Z,63.80
2018-06-05T18:40:35.505Z,64.00
2018-06-05T18:43:04.355Z,64.10
2018-06-05T18:45:33.363Z,64.30
2018-06-05T18:48:03.790Z,64.60
2018-06-05T18:50:32.940Z,65.30
2018-06-05T18:53:01.879Z,65.70
2018-06-05T18:55:30.877Z,65.60
2018-06-05T18:57:59.898Z,65.80
2018-06-05T19:00:28.995Z,66.10
2018-06-05T19:02:59.385Z,66.90
2018-06-05T19:05:28.350Z,67.60
2018-06-05T19:07:57.198Z,67.40
2018-06-05T19:10:26.099Z,67.70
2018-06-05T19:12:55.254Z,67.30
2018-06-05T19:15:24.216Z,68.10
2018-06-05T19:17:55.581Z,68.10
2018-06-05T19:20:24.628Z,67.60
2018-06-05T19:22:53.627Z,67.70
2018-06-05T19:25:22.826Z,67.60
2018-06-05T19:27:54.131Z,68.00
2018-06-05T19:30:22.953Z,68.30
2018-06-05T19:32:51.875Z,68.10
2018-06-05T19:35:21.075Z,67.50
2018-06-05T19:37:49.960Z,67.60
2018-06-05T19:40:18.870Z,67.30
2018-06-05T19:42:47.823Z,68.00
2018-06-05T19:45:16.794Z,67.80
2018-06-05T19:47:45.719Z,67.80
2018-06-05T19:50:14.752Z,67.50
2018-06-05T19:52:43.532Z,67.60
2018-06-05T19:55:19.424Z,67.70
2018-06-05T19:57:48.345Z,67.80
2018-06-05T20:00:17.198Z,68.10
2018-06-05T20:02:46.072Z,68.20
2018-06-05T20:05:15.144Z,68.60
2018-06-05T20:07:44.161Z,68.90
2018-06-05T20:10:13.056Z,68.60
2018-06-05T20:12:41.976Z,69.40
2018-06-05T20:15:11.573Z,69.90
2018-06-05T20:17:41.393Z,69.70
2018-06-05T20:20:11.527Z,69.50
2018-06-05T20:22:40.993Z,69.50
2018-06-05T20:25:11.060Z,70.40
2018-06-05T20:27:40.875Z,69.80
2018-06-05T20:30:10.337Z,70.00
2018-06-05T20:32:39.995Z,69.80
2018-06-05T20:35:09.438Z,69.80
2018-06-05T20:37:38.477Z,69.80
2018-06-05T20:40:08.116Z,70.00
2018-06-05T20:42:38.008Z,70.40
2018-06-05T20:45:07.163Z,70.80
2018-06-05T20:47:37.522Z,71.30
2018-06-05T20:50:06.475Z,71.30
2018-06-05T20:52:35.397Z,71.20
2018-06-05T20:55:04.690Z,71.50
2018-06-05T20:57:33.544Z,72.30
2018-06-05T21:00:02.646Z,71.90
2018-06-05T21:02:31.582Z,72.50
2018-06-05T21:05:00.489Z,72.60
2018-06-05T21:09:58.125Z,72.30
2018-06-05T21:12:27.159Z,72.40
2018-06-05T21:14:56.034Z,72.30
2018-06-05T21:17:24.943Z,72.40
2018-06-05T21:19:54.032Z,72.60
2018-06-05T21:22:23.078Z,72.70
2018-06-05T21:24:52.033Z,72.70
2018-06-05T21:27:21.130Z,72.90
2018-06-05T21:29:50.239Z,73.30
2018-06-05T21:32:19.314Z,73.40
2018-06-05T21:34:48.161Z,73.40
2018-06-05T21:37:17.421Z,73.70
2018-06-05T21:39:46.260Z,74.00
2018-06-05T21:42:15.227Z,74.20
2018-06-05T21:44:44.290Z,74.30
2018-06-05T21:47:13.228Z,74.70
2018-06-05T21:49:42.150Z,74.80
2018-06-05T21:54:39.445Z,75.20
2018-06-05T21:57:08.318Z,75.10
2018-06-05T21:59:37.184Z,75.40
2018-06-05T22:02:06.036Z,75.80
2018-06-05T22:04:34.940Z,76.00
2018-06-05T22:07:03.874Z,76.10
2018-06-05T22:09:32.840Z,76.20
2018-06-05T22:12:02.882Z,76.70
2018-06-05T22:14:33.942Z,76.60
2018-06-05T22:17:02.890Z,76.80
2018-06-05T22:19:31.884Z,76.90
2018-06-05T22:22:00.865Z,77.20
2018-06-05T22:24:29.854Z,77.30
2018-06-05T22:26:58.782Z,77.80
2018-06-05T22:29:27.690Z,78.20
2018-06-05T22:31:56.624Z,78.20
2018-06-05T22:34:25.534Z,78.20
2018-06-05T22:36:54.449Z,78.30
2018-06-05T22:39:23.360Z,78.50
2018-06-05T22:41:52.265Z,78.80
2018-06-05T22:44:21.089Z,79.10
2018-06-05T22:46:56.240Z,79.30
2018-06-05T22:49:27.505Z,79.40
2018-06-05T22:51:56.475Z,79.60
2018-06-05T22:54:25.586Z,79.80
2018-06-05T22:56:54.468Z,80.10
2018-06-05T22:59:23.301Z,80.20
2018-06-05T23:01:52.250Z,80.20
2018-06-05T23:04:21.115Z,80.50
2018-06-05T23:06:50.320Z,80.70
2018-06-05T23:09:19.194Z,80.70
2018-06-05T23:11:48.032Z,80.90
2018-06-05T23:14:17.119Z,81.20
2018-06-05T23:16:46.223Z,81.50
2018-06-05T23:19:15.116Z,81.90
2018-06-05T23:24:12.581Z,82.40
2018-06-05T23:26:41.456Z,82.70
2018-06-05T23:29:11.210Z,82.90
2018-06-05T23:31:40.398Z,83.60
2018-06-05T23:34:09.423Z,84.20
2018-06-05T23:36:38.332Z,84.10
2018-06-05T23:39:08.043Z,84.50
2018-06-05T23:41:36.979Z,84.20
2018-06-05T23:44:05.823Z,84.60
2018-06-05T23:46:34.741Z,85.00
2018-06-05T23:54:00.572Z,86.00
2018-06-05T23:58:57.863Z,86.80
